Terminal Aerodrome Forecast
Issued by NWS

Home | Current Version | Previous Version | Graphics & Text | Print | Product List | Glossary On
Versions: 1 2 3 4 5 6 7 8 9 10 11 12 13 14 15 16 17 18 19 20 21 22 23
000
FTUS42 KMHX 300500
TAFOAJ
TAF
KOAJ 300537Z 3006/0106 02003KT 5SM BR SCT005 BKN070
     FM300800 02002KT 1SM BR BKN003
     FM301330 02005KT P6SM SCT050 BKN100
     FM301800 03005KT P6SM SCT050
      AMD LTD TO CLD VIS AND WIND=

USA.gov is the U.S. government's official web portal to all federal, state and local government web resources and services.